Time;durP1;ratioP1;P1;durP2;ratioP2;P2;SDS_P1;SDS_P2;PMS_P1;PMS_P2;Temp;Humidity;BMP_temperature;BMP_pressure;BME280_temperature;BME280_humidity;BME280_pressure;Samples;Min_cycle;Max_cycle;Signal;HPM_P1;HPM_P2
2022/03/03 00:00:44;;;;;;;23.92;13.48;;;;;;;3.21;65.04;102070.88;5034441;28;20029;-70
2022/03/03 00:03:10;;;;;;;23.77;13.32;;;;;;;3.16;65.07;102066.06;5035489;28;20639;-71
2022/03/03 00:05:35;;;;;;;28.27;13.80;;;;;;;3.10;65.21;102063.94;5044659;28;20052;-70
2022/03/03 00:08:01;;;;;;;25.63;14.45;;;;;;;3.04;64.92;102066.94;5037788;28;20025;-71
2022/03/03 00:10:27;;;;;;;29.63;14.07;;;;;;;3.02;66.17;102064.50;5037503;28;20025;-70
2022/03/03 00:12:52;;;;;;;25.25;13.85;;;;;;;3.08;66.47;102071.75;5055375;28;20040;-70
2022/03/03 00:15:18;;;;;;;25.02;13.45;;;;;;;3.03;65.71;102070.41;5055485;28;20029;-71
2022/03/03 00:17:43;;;;;;;26.88;13.82;;;;;;;2.95;66.24;102068.38;5037431;28;20102;-71
2022/03/03 00:20:09;;;;;;;24.52;13.18;;;;;;;2.85;66.74;102068.22;5055634;28;20032;-71
2022/03/03 00:22:34;;;;;;;24.58;13.65;;;;;;;2.95;65.51;102060.72;5055467;28;20524;-71
2022/03/03 00:24:59;;;;;;;23.48;13.40;;;;;;;2.86;66.52;102066.47;5055196;28;20032;-71
2022/03/03 00:27:25;;;;;;;27.73;14.02;;;;;;;2.89;66.72;102061.16;5054175;28;20032;-71
2022/03/03 00:29:51;;;;;;;27.10;13.32;;;;;;;2.80;66.29;102064.34;5054204;28;20029;-71
2022/03/03 00:32:17;;;;;;;25.83;13.02;;;;;;;2.72;66.42;102059.75;5054474;28;20055;-70
2022/03/03 00:34:42;;;;;;;26.23;14.23;;;;;;;2.74;66.79;102055.34;5037176;28;20052;-71
2022/03/03 00:37:07;;;;;;;23.17;12.90;;;;;;;2.86;67.44;102051.97;5037028;28;20493;-71
2022/03/03 00:39:33;;;;;;;24.25;13.23;;;;;;;2.78;67.40;102055.97;5055052;28;20017;-71
2022/03/03 00:41:58;;;;;;;28.83;14.00;;;;;;;2.69;67.75;102044.63;5037407;28;20060;-72
2022/03/03 00:44:23;;;;;;;24.52;13.27;;;;;;;2.75;65.12;102043.41;5037438;28;20029;-71
2022/03/03 00:46:48;;;;;;;24.92;13.63;;;;;;;2.94;65.68;102052.25;5055266;28;20025;-70
2022/03/03 00:49:14;;;;;;;26.63;13.40;;;;;;;2.93;65.80;102050.63;5054998;28;20033;-71
2022/03/03 00:51:39;;;;;;;26.38;13.48;;;;;;;2.78;65.86;102041.44;5037170;28;20468;-70
2022/03/03 00:54:04;;;;;;;24.80;13.65;;;;;;;2.86;66.21;102043.50;5056669;28;20028;-71
2022/03/03 00:56:30;;;;;;;26.63;13.65;;;;;;;2.86;64.85;102040.94;5039405;28;20028;-71
2022/03/03 00:58:55;;;;;;;27.45;14.02;;;;;;;2.78;66.84;102041.44;5056762;28;20473;-71
2022/03/03 01:01:21;;;;;;;26.58;13.40;;;;;;;2.71;67.25;102024.94;5038961;28;20020;-71
2022/03/03 01:03:46;;;;;;;25.17;13.18;;;;;;;2.55;67.23;102025.16;5056821;28;20033;-72
2022/03/03 01:06:12;;;;;;;25.45;13.18;;;;;;;2.70;67.40;102036.88;5056304;28;20083;-71
2022/03/03 01:08:37;;;;;;;26.92;14.25;;;;;;;2.78;66.76;102035.53;5055998;28;20028;-71
2022/03/03 01:11:05;;;;;;;26.00;13.23;;;;;;;2.64;66.91;102031.38;5055888;28;20361;-71
2022/03/03 01:13:30;;;;;;;25.17;13.52;;;;;;;2.63;67.06;102034.84;5055759;28;20507;-71
2022/03/03 01:15:56;;;;;;;22.95;12.88;;;;;;;2.66;67.03;102034.63;5043012;28;20029;-75
2022/03/03 01:18:21;;;;;;;25.10;12.88;;;;;;;2.58;67.61;102039.44;5045926;28;20078;-74
2022/03/03 01:20:46;;;;;;;24.70;13.52;;;;;;;2.58;66.96;102034.34;5047442;28;20032;-73
2022/03/03 01:23:12;;;;;;;27.10;14.20;;;;;;;2.60;67.98;102030.75;5064777;28;20132;-72
2022/03/03 01:25:38;;;;;;;25.80;13.77;;;;;;;2.60;67.62;102030.75;5065660;28;20021;-73
2022/03/03 01:28:03;;;;;;;24.98;13.65;;;;;;;2.57;67.25;102033.53;5047353;28;20017;-71
2022/03/03 01:30:29;;;;;;;25.42;14.48;;;;;;;2.53;67.61;102029.53;5065492;28;20100;-72
2022/03/03 01:32:54;;;;;;;24.65;13.35;;;;;;;2.64;66.12;102021.97;5058280;28;20029;-73
2022/03/03 01:35:20;;;;;;;26.60;13.27;;;;;;;2.37;67.22;101988.13;5055870;28;20082;-71
2022/03/03 01:37:45;;;;;;;24.77;13.52;;;;;;;2.52;67.19;102016.91;5054948;28;20017;-70
2022/03/03 01:40:11;;;;;;;29.90;13.52;;;;;;;2.51;66.35;102003.31;5054833;28;20032;-70
2022/03/03 01:42:36;;;;;;;25.38;13.68;;;;;;;2.30;66.69;101969.03;5055845;28;20027;-72
2022/03/03 01:45:03;;;;;;;26.83;14.30;;;;;;;2.52;66.70;102002.38;5036809;28;20120;-71
2022/03/03 01:47:28;;;;;;;25.70;13.60;;;;;;;2.42;66.83;101991.19;5054377;28;20433;-72
2022/03/03 01:49:56;;;;;;;28.15;14.20;;;;;;;2.28;67.84;101986.22;5036250;28;20055;-72
2022/03/03 01:52:21;;;;;;;25.98;13.07;;;;;;;2.40;67.50;101985.38;5036291;28;20028;-72
2022/03/03 01:54:47;;;;;;;24.85;13.45;;;;;;;2.38;67.93;101982.09;5053836;28;20028;-69
2022/03/03 01:57:17;;;;;;;30.98;14.32;;;;;;;2.33;68.02;101990.09;5053806;28;20027;-72
2022/03/03 01:59:42;;;;;;;28.48;14.40;;;;;;;2.25;68.92;101982.94;5036185;28;20032;-71
2022/03/03 02:02:11;;;;;;;25.98;13.93;;;;;;;2.22;68.24;101983.13;5053833;28;20021;-71
2022/03/03 02:04:40;;;;;;;27.35;14.15;;;;;;;2.33;67.82;101984.97;5053337;28;20025;-71
2022/03/03 02:07:06;;;;;;;27.73;14.70;;;;;;;2.40;68.51;101982.81;5053725;28;20032;-72
2022/03/03 02:09:32;;;;;;;24.67;13.73;;;;;;;2.20;68.80;101974.78;5053458;28;20108;-71
2022/03/03 02:11:57;;;;;;;27.13;14.18;;;;;;;2.24;69.23;101973.66;5053650;28;20102;-71
2022/03/03 02:14:23;;;;;;;26.27;13.68;;;;;;;2.20;69.45;101979.88;5035672;28;20032;-71
2022/03/03 02:16:48;;;;;;;26.23;13.70;;;;;;;2.28;68.59;101983.66;5053390;28;20469;-71
2022/03/03 02:19:18;;;;;;;28.65;13.82;;;;;;;2.36;68.10;101981.38;5035649;28;20086;-71
2022/03/03 02:21:51;;;;;;;27.35;13.70;;;;;;;2.26;68.53;101971.00;5053591;28;20029;-70
2022/03/03 02:24:20;;;;;;;27.38;13.52;;;;;;;2.18;68.18;101974.03;5035659;28;20035;-71
2022/03/03 02:26:46;;;;;;;24.98;13.50;;;;;;;2.05;69.00;101982.63;5035673;28;20029;-71
2022/03/03 02:29:12;;;;;;;26.50;13.68;;;;;;;2.03;69.34;101980.19;5057213;28;20032;-71
2022/03/03 02:31:38;;;;;;;26.13;13.90;;;;;;;2.01;69.47;101982.00;5057684;28;20033;-71
2022/03/03 02:34:04;;;;;;;27.55;13.88;;;;;;;1.97;69.06;101978.03;5039299;28;20476;-71
2022/03/03 02:36:29;;;;;;;26.63;13.80;;;;;;;1.90;69.29;101974.25;5039237;28;20025;-71
2022/03/03 02:39:00;;;;;;;31.90;14.55;;;;;;;2.02;68.96;101983.66;5057692;28;20112;-71
2022/03/03 02:41:27;;;;;;;27.58;14.20;;;;;;;1.97;68.99;101980.59;5039399;28;20024;-71
2022/03/03 02:43:53;;;;;;;31.77;15.15;;;;;;;1.91;68.99;101983.53;5057295;28;20028;-71
2022/03/03 02:46:19;;;;;;;30.38;13.70;;;;;;;1.90;69.17;101967.44;5039425;28;20025;-70
2022/03/03 02:48:44;;;;;;;28.83;15.55;;;;;;;1.96;69.30;101969.56;5039291;28;20391;-70
2022/03/03 02:51:10;;;;;;;26.52;14.02;;;;;;;1.91;68.73;101965.69;5039247;28;20477;-71
2022/03/03 02:53:36;;;;;;;27.50;14.93;;;;;;;1.93;69.13;101963.88;5039487;28;20078;-71
2022/03/03 02:56:03;;;;;;;28.88;13.85;;;;;;;1.83;68.93;101958.53;5056757;28;20116;-71
2022/03/03 02:58:28;;;;;;;27.67;14.27;;;;;;;1.89;68.37;101952.22;5038906;28;20136;-70
2022/03/03 03:00:55;;;;;;;28.13;14.05;;;;;;;1.78;68.96;101940.19;5057483;28;20616;-75
2022/03/03 03:03:20;;;;;;;29.25;14.18;;;;;;;1.98;67.52;101957.53;5060159;28;20456;-71
2022/03/03 03:05:46;;;;;;;26.08;14.30;;;;;;;2.00;66.98;101945.50;5038700;28;20037;-71
2022/03/03 03:08:12;;;;;;;28.80;14.23;;;;;;;1.98;67.85;101943.97;5056867;28;20384;-71
2022/03/03 03:10:39;;;;;;;29.00;14.80;;;;;;;1.97;67.94;101944.91;5056703;28;20475;-71
2022/03/03 03:13:06;;;;;;;29.42;14.77;;;;;;;1.89;68.24;101952.22;5056740;28;20029;-71
2022/03/03 03:15:32;;;;;;;30.90;14.65;;;;;;;1.70;68.79;101920.31;5056441;28;20029;-71
2022/03/03 03:18:08;;;;;;;26.05;13.90;;;;;;;1.72;68.56;101949.03;5056585;28;20028;-71
2022/03/03 03:20:33;;;;;;;26.30;14.10;;;;;;;1.63;69.75;101939.47;5056569;28;20029;-71
2022/03/03 03:22:59;;;;;;;26.17;13.55;;;;;;;1.57;69.68;101934.78;5056525;28;20032;-72
2022/03/03 03:25:24;;;;;;;28.02;14.10;;;;;;;1.66;69.05;101938.44;5038419;28;20115;-71
2022/03/03 03:27:49;;;;;;;33.30;14.30;;;;;;;1.60;69.40;101933.75;5056495;28;20016;-71
2022/03/03 03:30:15;;;;;;;25.67;14.23;;;;;;;1.74;68.15;101939.56;5038429;28;20495;-72
2022/03/03 03:32:40;;;;;;;28.17;14.48;;;;;;;1.58;68.47;101939.78;5055982;28;20108;-71
2022/03/03 03:35:06;;;;;;;28.95;14.70;;;;;;;1.73;67.89;101935.41;5056183;28;20035;-72
2022/03/03 03:37:32;;;;;;;28.10;14.00;;;;;;;1.78;67.87;101933.38;5056293;28;20560;-71
2022/03/03 03:39:57;;;;;;;29.52;14.80;;;;;;;1.53;69.43;101925.72;5055626;28;20061;-71
2022/03/03 03:42:23;;;;;;;30.52;15.05;;;;;;;1.62;69.04;101926.84;5055105;28;20025;-71
2022/03/03 03:44:49;;;;;;;26.20;13.77;;;;;;;1.72;67.93;101928.66;5055076;28;20025;-72
2022/03/03 03:47:14;;;;;;;27.92;14.20;;;;;;;1.81;66.90;101924.69;5037611;28;20035;-71
2022/03/03 03:49:40;;;;;;;28.13;14.20;;;;;;;1.64;67.88;101923.28;5038269;28;20028;-71
2022/03/03 03:52:05;;;;;;;27.77;14.75;;;;;;;1.72;67.70;101921.00;5055742;28;20059;-71
2022/03/03 03:54:31;;;;;;;30.30;15.15;;;;;;;1.63;67.42;101924.16;5055771;28;20025;-71
2022/03/03 03:56:56;;;;;;;31.80;14.85;;;;;;;1.52;67.71;101916.41;5038134;28;20104;-71
2022/03/03 03:59:22;;;;;;;28.45;14.23;;;;;;;1.58;67.15;101913.47;5037855;28;20032;-72
2022/03/03 04:01:47;;;;;;;27.38;13.93;;;;;;;1.46;67.83;101912.53;5055661;28;20029;-70
2022/03/03 04:04:12;;;;;;;27.55;15.32;;;;;;;1.68;66.77;101914.50;5055703;28;20031;-70
2022/03/03 04:06:38;;;;;;;35.78;15.00;;;;;;;1.66;66.75;101903.59;5037448;28;20072;-70
2022/03/03 04:09:04;;;;;;;28.50;15.27;;;;;;;1.58;67.36;101899.00;5036916;28;20119;-71
2022/03/03 04:11:29;;;;;;;28.65;14.60;;;;;;;1.54;66.53;101901.84;5055300;28;20028;-71
2022/03/03 04:13:56;;;;;;;28.38;14.38;;;;;;;1.39;66.61;101895.22;5055553;28;20028;-71
2022/03/03 04:16:22;;;;;;;29.80;14.63;;;;;;;1.48;66.61;101892.06;5055560;28;20103;-71
2022/03/03 04:18:48;;;;;;;31.58;15.30;;;;;;;1.62;66.17;101886.88;5055510;28;20155;-71
2022/03/03 04:21:13;;;;;;;30.63;14.82;;;;;;;1.53;66.66;101887.50;5054616;28;20029;-71
2022/03/03 04:23:38;;;;;;;27.00;13.90;;;;;;;1.40;67.29;101902.75;5055376;28;20025;-71
2022/03/03 04:26:04;;;;;;;28.33;13.55;;;;;;;1.45;66.82;101898.16;5037720;28;20123;-71
2022/03/03 04:28:29;;;;;;;28.65;14.45;;;;;;;1.32;68.79;101898.16;5055009;28;20619;-71
2022/03/03 04:30:54;;;;;;;29.25;14.77;;;;;;;0.96;68.93;101870.78;5055232;28;20033;-71
2022/03/03 04:33:19;;;;;;;30.75;15.27;;;;;;;1.18;67.97;101887.22;5037255;28;20036;-71
2022/03/03 04:35:45;;;;;;;31.55;14.48;;;;;;;1.19;68.79;101894.75;5037196;28;20063;-71
2022/03/03 04:38:10;;;;;;;29.20;14.40;;;;;;;1.14;69.16;101894.22;5055210;28;20096;-71
2022/03/03 04:40:35;;;;;;;28.70;13.80;;;;;;;1.15;69.48;101898.41;5055020;28;20048;-71
2022/03/03 04:43:01;;;;;;;27.67;14.68;;;;;;;0.93;70.01;101901.50;5037633;28;20384;-71
2022/03/03 04:45:26;;;;;;;33.50;14.40;;;;;;;1.04;70.21;101906.75;5055108;28;20048;-72
2022/03/03 04:47:51;;;;;;;33.35;15.48;;;;;;;0.86;70.71;101903.63;5037150;28;20016;-72
2022/03/03 04:50:17;;;;;;;30.17;14.07;;;;;;;0.80;70.29;101886.19;5056487;28;20032;-72
2022/03/03 04:52:43;;;;;;;30.65;14.75;;;;;;;0.91;70.41;101900.78;5039334;28;20017;-71
2022/03/03 04:55:09;;;;;;;31.33;15.15;;;;;;;0.87;70.27;101900.16;5057159;28;20029;-72
2022/03/03 04:57:34;;;;;;;35.95;14.40;;;;;;;0.98;70.72;101899.50;5055391;28;20434;-71
2022/03/03 05:00:00;;;;;;;32.75;16.17;;;;;;;0.87;70.60;101897.63;5055385;28;20044;-71
2022/03/03 05:02:25;;;;;;;31.20;16.27;;;;;;;0.88;70.70;101906.06;5054933;28;20017;-72
2022/03/03 05:04:50;;;;;;;30.48;15.23;;;;;;;1.06;69.53;101906.63;5056032;28;20049;-71
2022/03/03 05:07:16;;;;;;;28.48;14.57;;;;;;;0.97;68.98;101902.13;5055178;28;20487;-71
2022/03/03 05:09:41;;;;;;;29.23;14.82;;;;;;;0.95;69.66;101906.50;5054887;28;20029;-72
2022/03/03 05:12:07;;;;;;;30.65;14.75;;;;;;;0.98;69.38;101902.03;5037672;28;20113;-72
2022/03/03 05:14:33;;;;;;;29.63;15.35;;;;;;;1.03;69.35;101911.91;5056129;28;20029;-72
2022/03/03 05:16:58;;;;;;;31.25;14.52;;;;;;;0.61;69.54;101873.00;5054800;28;20028;-72
2022/03/03 05:19:23;;;;;;;25.48;14.15;;;;;;;0.91;69.40;101898.25;5036863;28;20037;-72
2022/03/03 05:21:49;;;;;;;34.08;15.40;;;;;;;0.87;70.14;101895.06;5036655;28;20048;-72
2022/03/03 05:24:14;;;;;;;29.73;14.43;;;;;;;0.94;69.02;101894.69;5054296;28;20029;-71
2022/03/03 05:26:39;;;;;;;28.98;15.27;;;;;;;1.08;68.19;101887.81;5036637;28;20353;-71
2022/03/03 05:29:05;;;;;;;31.02;15.15;;;;;;;0.98;68.54;101889.31;5054095;28;20063;-71
2022/03/03 05:31:30;;;;;;;30.48;14.80;;;;;;;0.92;68.65;101884.59;5036693;28;20470;-72
2022/03/03 05:33:55;;;;;;;27.20;14.70;;;;;;;0.89;69.04;101885.63;5054825;28;20028;-72
2022/03/03 05:36:24;;;;;;;27.13;13.95;;;;;;;1.06;67.96;101884.53;5054341;28;20419;-71
2022/03/03 05:38:50;;;;;;;29.73;14.13;;;;;;;1.05;69.04;101899.91;5054233;28;20117;-71
2022/03/03 05:41:15;;;;;;;31.85;14.88;;;;;;;0.94;68.73;101889.59;5036288;28;20064;-71
2022/03/03 05:43:41;;;;;;;31.67;15.65;;;;;;;0.74;69.34;101896.75;5055135;28;20102;-72
2022/03/03 05:46:06;;;;;;;27.85;14.57;;;;;;;0.55;69.45;101869.09;5036082;28;20033;-71
2022/03/03 05:48:33;;;;;;;29.60;15.10;;;;;;;0.63;70.06;101886.41;5053885;28;20071;-72
2022/03/03 05:50:58;;;;;;;28.10;15.05;;;;;;;0.75;69.43;101893.31;5035868;28;20028;-72
2022/03/03 05:53:24;;;;;;;28.95;14.95;;;;;;;0.59;69.41;101890.06;5035822;28;20029;-72
2022/03/03 05:55:55;;;;;;;34.53;15.13;;;;;;;0.68;69.91;101894.59;5053560;28;20388;-73
2022/03/03 05:58:23;;;;;;;33.22;15.38;;;;;;;0.54;70.21;101903.06;5035861;28;20480;-72
2022/03/03 06:00:53;;;;;;;32.72;15.88;;;;;;;0.66;69.90;101893.84;5053471;28;20107;-72
2022/03/03 06:03:19;;;;;;;30.23;15.32;;;;;;;0.64;69.61;101896.50;5035698;28;20028;-73
2022/03/03 06:05:50;;;;;;;31.88;14.75;;;;;;;0.71;70.47;101898.66;5035499;28;20122;-71
2022/03/03 06:08:30;;;;;;;34.53;15.50;;;;;;;0.56;70.33;101903.78;5053601;28;20025;-71
2022/03/03 06:11:01;;;;;;;29.85;15.50;;;;;;;0.58;70.65;101899.44;5035636;28;20035;-72
2022/03/03 06:13:35;;;;;;;29.92;15.00;;;;;;;0.56;70.29;101905.53;5053345;28;20033;-71
2022/03/03 06:16:02;;;;;;;28.45;14.63;;;;;;;0.49;70.45;101905.09;5039411;28;20496;-71
2022/03/03 06:18:32;;;;;;;33.95;15.05;;;;;;;0.45;70.27;101901.91;5041981;28;20388;-74
2022/03/03 06:20:58;;;;;;;35.88;16.02;;;;;;;0.35;70.10;101872.06;5062603;28;20033;-72
2022/03/03 06:23:24;;;;;;;29.55;15.13;;;;;;;0.57;70.31;101885.06;5045255;28;20077;-73
2022/03/03 06:26:00;;;;;;;30.38;15.02;;;;;;;0.73;70.16;101907.84;5042883;28;20029;-71
2022/03/03 06:28:25;;;;;;;36.97;15.30;;;;;;;0.72;69.90;101901.13;5035755;28;20056;-72
2022/03/03 06:30:51;;;;;;;30.40;15.95;;;;;;;0.80;69.89;101900.63;5052905;28;20052;-70
2022/03/03 06:33:16;;;;;;;32.03;15.30;;;;;;;0.77;69.77;101906.72;5052233;28;20017;-70
2022/03/03 06:35:41;;;;;;;28.70;15.40;;;;;;;0.61;69.88;101903.53;5051860;28;20033;-71
2022/03/03 06:38:07;;;;;;;29.13;15.05;;;;;;;0.60;69.65;101902.69;5052508;28;20448;-71
2022/03/03 06:40:34;;;;;;;31.70;14.75;;;;;;;0.63;70.06;101909.31;5053553;28;20029;-72
2022/03/03 06:43:04;;;;;;;30.15;15.07;;;;;;;0.67;69.90;101908.22;5035461;28;20029;-71
2022/03/03 06:45:30;;;;;;;29.77;15.65;;;;;;;0.76;69.89;101905.09;5035368;28;20469;-71
2022/03/03 06:47:57;;;;;;;30.40;15.50;;;;;;;0.63;69.42;101919.50;5053211;28;20111;-72
2022/03/03 06:50:23;;;;;;;29.40;15.10;;;;;;;0.55;69.55;101921.72;5035581;28;20472;-72
2022/03/03 06:52:50;;;;;;;28.42;15.15;;;;;;;0.64;69.70;101924.50;5035285;28;20074;-71
2022/03/03 06:55:19;;;;;;;31.33;15.65;;;;;;;0.83;69.01;101931.78;5035131;28;20033;-71
2022/03/03 06:57:48;;;;;;;29.52;15.52;;;;;;;0.81;68.86;101931.09;5052919;28;20162;-71
2022/03/03 07:00:15;;;;;;;31.17;15.65;;;;;;;1.04;68.51;101936.47;5053338;28;20064;-72
2022/03/03 07:02:42;;;;;;;37.28;15.02;;;;;;;0.98;67.81;101901.22;5035162;28;20498;-73
2022/03/03 07:05:10;;;;;;;28.42;15.10;;;;;;;0.99;67.88;101934.22;5052614;28;20041;-73
2022/03/03 07:07:36;;;;;;;32.05;15.63;;;;;;;0.79;69.13;101932.91;5035122;28;20033;-71
2022/03/03 07:10:03;;;;;;;30.55;14.95;;;;;;;1.06;68.31;101934.63;5037849;28;20024;-71
2022/03/03 07:12:30;;;;;;;34.20;16.60;;;;;;;1.06;68.49;101942.28;5053110;28;20100;-72
2022/03/03 07:14:55;;;;;;;31.40;16.13;;;;;;;1.26;68.05;101934.19;5038240;28;20033;-71
2022/03/03 07:17:42;;;;;;;30.30;15.82;;;;;;;1.42;67.97;101928.94;5055516;28;20021;-72
2022/03/03 07:20:10;;;;;;;34.50;15.68;;;;;;;1.48;67.16;101935.38;5055513;28;20032;-72
2022/03/03 07:22:44;;;;;;;36.78;15.68;;;;;;;1.30;66.91;101945.81;5037936;28;20031;-72
2022/03/03 07:25:10;;;;;;;;;;;;;;;1.35;66.51;101943.81;5037664;28;20082;-72
2022/03/03 07:27:41;;;;;;;32.78;15.88;;;;;;;1.51;66.53;101940.25;5036752;28;19909;-72
2022/03/03 07:30:09;;;;;;;30.17;15.32;;;;;;;1.78;65.86;101938.47;5054271;28;20029;-71
2022/03/03 07:32:37;;;;;;;36.67;16.10;;;;;;;1.72;66.22;101938.03;5055145;28;20476;-72
2022/03/03 07:35:09;;;;;;;35.10;16.27;;;;;;;1.73;65.87;101934.59;5034688;28;20047;-71
2022/03/03 07:37:40;;;;;;;33.35;15.90;;;;;;;2.15;64.71;101938.56;5035432;28;20116;-71
2022/03/03 07:40:08;;;;;;;36.35;16.08;;;;;;;2.12;64.40;101933.66;5035924;28;20055;-71
2022/03/03 07:42:35;;;;;;;34.17;15.90;;;;;;;3.32;61.15;101935.53;5035962;28;20098;-73
2022/03/03 07:45:03;;;;;;;31.70;15.20;;;;;;;6.51;51.24;101911.06;5058870;28;20029;-72
2022/03/03 07:47:29;;;;;;;27.85;15.45;;;;;;;6.71;49.21;101931.66;5041188;28;20054;-73
2022/03/03 07:49:56;;;;;;;27.38;15.13;;;;;;;6.76;49.96;101924.34;5040727;28;20056;-76
2022/03/03 07:52:23;;;;;;;25.80;14.68;;;;;;;8.54;45.44;101931.38;5039820;28;20017;-78
2022/03/03 07:54:49;;;;;;;26.23;16.23;;;;;;;8.48;44.46;101935.34;5036377;28;20039;-73
2022/03/03 07:57:16;;;;;;;26.83;15.23;;;;;;;9.55;43.20;101949.16;5035800;28;20033;-73
2022/03/03 07:59:47;;;;;;;27.60;15.15;;;;;;;8.46;44.39;101947.56;5036775;28;20074;-72
2022/03/03 08:02:20;;;;;;;24.70;15.00;;;;;;;8.19;45.39;101932.09;5055331;28;20025;-73
2022/03/03 08:04:46;;;;;;;27.95;16.42;;;;;;;9.08;44.21;101939.13;5036282;28;20044;-73
2022/03/03 08:07:14;;;;;;;26.55;15.75;;;;;;;9.09;43.13;101945.91;5035955;28;20484;-73
2022/03/03 08:09:40;;;;;;;27.23;15.98;;;;;;;10.10;41.36;101943.66;5036234;28;20037;-73
2022/03/03 08:12:07;;;;;;;30.20;15.30;;;;;;;11.60;38.49;101946.13;5054791;28;20031;-74
2022/03/03 08:14:34;;;;;;;23.48;15.00;;;;;;;11.70;37.99;101910.47;5054376;28;20021;-72
2022/03/03 08:17:00;;;;;;;26.30;15.65;;;;;;;12.31;35.81;101931.47;5042444;28;20021;-74
2022/03/03 08:19:25;;;;;;;30.52;15.32;;;;;;;12.71;35.02;101929.59;5052466;28;20390;-73
2022/03/03 08:21:51;;;;;;;22.70;15.30;;;;;;;11.88;36.11;101938.78;5053915;28;20032;-73
2022/03/03 08:24:16;;;;;;;20.77;14.45;;;;;;;12.84;34.95;101940.22;5035279;28;20025;-73
2022/03/03 08:26:43;;;;;;;21.55;15.20;;;;;;;11.70;36.66;101936.38;5053672;28;20107;-73
2022/03/03 08:29:10;;;;;;;22.70;14.80;;;;;;;13.15;34.63;101941.09;5053910;28;20349;-72
2022/03/03 08:31:39;;;;;;;25.30;14.77;;;;;;;13.67;33.22;101941.13;5036318;28;20029;-73
2022/03/03 08:34:15;;;;;;;23.63;14.52;;;;;;;13.27;33.26;101918.97;5054726;28;20129;-73
2022/03/03 08:36:54;;;;;;;24.20;15.48;;;;;;;13.74;32.85;101946.41;5054466;28;20017;-73
2022/03/03 08:39:23;;;;;;;23.88;15.23;;;;;;;13.80;33.02;101947.50;5053781;28;20029;-72
2022/03/03 08:41:51;;;;;;;21.45;14.55;;;;;;;14.28;31.90;101935.69;5053480;28;20361;-73
2022/03/03 08:44:19;;;;;;;23.88;14.82;;;;;;;14.26;32.69;101958.47;5035470;28;20021;-74
2022/03/03 08:46:46;;;;;;;24.08;14.57;;;;;;;14.86;31.63;101952.09;5038050;28;20135;-73
2022/03/03 08:49:13;;;;;;;20.23;13.63;;;;;;;15.40;30.60;101949.94;5056351;28;20048;-73
2022/03/03 08:51:39;;;;;;;22.15;14.00;;;;;;;16.01;29.49;101944.88;5056228;28;20150;-72
2022/03/03 08:54:05;;;;;;;19.10;14.30;;;;;;;16.34;29.47;101944.19;5054777;28;20028;-72
2022/03/03 08:56:32;;;;;;;22.95;13.90;;;;;;;16.68;28.73;101948.47;5036074;28;20048;-72
2022/03/03 08:58:57;;;;;;;23.17;14.90;;;;;;;16.87;28.75;101946.91;5034914;28;20372;-72
2022/03/03 09:01:23;;;;;;;24.15;13.82;;;;;;;17.62;27.22;101929.16;5034992;28;20029;-72
2022/03/03 09:03:48;;;;;;;22.13;13.57;;;;;;;18.09;27.22;101944.69;5053069;28;20021;-72
2022/03/03 09:06:18;;;;;;;21.98;13.77;;;;;;;17.78;26.41;101951.44;5052825;28;20037;-73
2022/03/03 09:08:44;;;;;;;20.77;13.40;;;;;;;17.89;27.26;101948.19;5053243;28;20033;-73
2022/03/03 09:11:09;;;;;;;21.50;13.10;;;;;;;18.81;25.47;101945.28;5035419;28;20028;-72
2022/03/03 09:13:35;;;;;;;17.45;12.82;;;;;;;19.57;24.51;101946.81;5054774;28;20480;-72
2022/03/03 09:16:01;;;;;;;22.08;13.07;;;;;;;19.35;24.57;101952.47;5055777;28;20075;-73
2022/03/03 09:18:26;;;;;;;15.30;12.02;;;;;;;19.19;24.37;101944.34;5054452;28;20025;-72
2022/03/03 09:20:52;;;;;;;17.02;12.10;;;;;;;19.55;24.23;101948.84;5054142;28;20423;-72
2022/03/03 09:23:18;;;;;;;18.08;11.57;;;;;;;19.29;22.55;101948.09;5053432;28;20464;-72
2022/03/03 09:25:43;;;;;;;16.80;11.15;;;;;;;17.98;24.82;101960.03;5052666;28;20029;-73
2022/03/03 09:28:09;;;;;;;18.75;11.30;;;;;;;19.29;23.36;101961.19;5052637;28;20074;-73
2022/03/03 09:30:34;;;;;;;17.85;11.75;;;;;;;19.40;22.85;101964.94;5034350;28;20179;-74
2022/03/03 09:33:00;;;;;;;16.55;11.45;;;;;;;18.58;23.94;101951.84;5052385;28;20029;-73
2022/03/03 09:35:26;;;;;;;18.50;11.32;;;;;;;20.15;23.00;101963.91;5036020;28;20059;-73
2022/03/03 09:37:51;;;;;;;14.68;11.13;;;;;;;19.45;23.04;101951.16;5053334;28;20017;-73
2022/03/03 09:40:17;;;;;;;17.08;11.50;;;;;;;20.72;22.69;101943.34;5052766;28;20070;-73
2022/03/03 09:42:54;;;;;;;18.10;11.68;;;;;;;21.44;21.82;101952.84;5052183;28;20032;-73
2022/03/03 09:45:20;;;;;;;16.27;11.40;;;;;;;20.64;21.75;101936.56;5053786;28;20376;-72
2022/03/03 09:47:45;;;;;;;16.03;11.07;;;;;;;19.42;22.52;101936.69;5036095;28;20031;-72
2022/03/03 09:50:10;;;;;;;14.30;10.48;;;;;;;20.66;21.21;101931.91;5035843;28;20272;-73
2022/03/03 09:52:36;;;;;;;16.67;11.07;;;;;;;20.24;21.88;101915.34;5035992;28;20392;-73
2022/03/03 09:55:03;;;;;;;14.07;11.05;;;;;;;22.20;20.79;101930.66;5039985;28;20456;-72
2022/03/03 09:57:28;;;;;;;19.92;11.13;;;;;;;23.02;21.18;101915.34;5053488;28;20032;-72
2022/03/03 09:59:53;;;;;;;23.02;11.77;;;;;;;22.90;21.74;101916.25;5053154;28;20025;-72
2022/03/03 10:02:19;;;;;;;16.83;11.90;;;;;;;21.71;21.54;101925.00;5053735;28;20028;-71
2022/03/03 10:04:44;;;;;;;23.80;12.70;;;;;;;21.23;22.92;101910.31;5053386;28;20033;-72
2022/03/03 10:07:10;;;;;;;17.52;12.20;;;;;;;22.99;21.06;101914.03;5053310;28;20368;-71
2022/03/03 10:09:59;;;;;;;15.38;12.20;;;;;;;22.93;21.38;101907.84;5033755;28;20044;-72
2022/03/03 10:12:27;;;;;;;15.82;11.32;;;;;;;21.88;21.11;101911.09;5051061;28;20036;-71
2022/03/03 10:14:57;;;;;;;15.48;11.98;;;;;;;21.79;21.63;101911.47;5034159;28;20024;-71
2022/03/03 10:17:37;;;;;;;15.95;12.02;;;;;;;21.85;21.25;101905.28;5035530;28;20029;-70
2022/03/03 10:20:04;;;;;;;19.42;12.30;;;;;;;21.14;22.41;101909.84;5053163;28;20035;-71
2022/03/03 10:22:59;;;;;;;18.40;12.63;;;;;;;22.22;21.01;101904.91;5034797;28;20029;-71
2022/03/03 10:25:39;;;;;;;20.17;12.55;;;;;;;21.60;21.16;101905.56;5035251;28;20431;-72
2022/03/03 10:28:16;;;;;;;20.58;13.48;;;;;;;21.30;21.27;101907.56;5052202;28;20087;-71
2022/03/03 10:31:09;;;;;;;17.20;12.75;;;;;;;20.93;22.78;101900.72;5034339;28;20078;-72
2022/03/03 10:33:35;;;;;;;17.88;12.77;;;;;;;20.83;22.10;101866.38;5053314;28;20033;-72
2022/03/03 10:36:11;;;;;;;22.88;12.60;;;;;;;18.67;24.47;101900.88;5034283;28;20017;-71
2022/03/03 10:38:57;;;;;;;16.50;12.55;;;;;;;16.19;27.63;101894.78;5036414;28;20025;-72
2022/03/03 10:41:47;;;;;;;18.08;12.02;;;;;;;14.00;29.36;101910.38;5036165;28;20025;-73
2022/03/03 10:44:15;;;;;;;16.98;11.38;;;;;;;13.54;28.59;101876.81;5052495;28;20029;-71
2022/03/03 10:47:02;;;;;;;15.88;11.43;;;;;;;13.71;29.53;101887.81;5034470;28;20044;-71
2022/03/03 10:49:28;;;;;;;17.02;11.45;;;;;;;14.04;28.25;101900.44;5054427;28;20066;-71
2022/03/03 10:51:53;;;;;;;14.90;10.70;;;;;;;13.74;29.93;101889.25;5055623;28;20025;-73
2022/03/03 10:54:19;;;;;;;19.88;12.25;;;;;;;13.72;31.23;101899.03;5055652;28;20039;-71
2022/03/03 10:56:48;;;;;;;21.10;13.45;;;;;;;14.10;31.26;101893.72;5055543;28;20358;-71
2022/03/03 10:59:24;;;;;;;20.83;13.20;;;;;;;14.01;30.79;101905.97;5055628;28;20074;-71
2022/03/03 11:01:51;;;;;;;22.02;12.40;;;;;;;14.95;29.35;101892.13;5055668;28;20756;-70
2022/03/03 11:04:18;;;;;;;19.35;11.30;;;;;;;14.36;29.49;101873.19;5037238;28;20044;-72
2022/03/03 11:06:44;;;;;;;17.83;11.25;;;;;;;13.73;29.96;101896.25;5054780;28;20048;-71
2022/03/03 11:09:10;;;;;;;18.55;11.88;;;;;;;14.62;29.51;101888.25;5054566;28;20078;-72
2022/03/03 11:11:36;;;;;;;17.08;10.73;;;;;;;14.15;28.88;101881.75;5054501;28;20465;-70
2022/03/03 11:14:02;;;;;;;16.17;10.98;;;;;;;13.84;29.33;101886.38;5054774;28;20033;-71